sensor_id;sensor_type;location;lat;lon;timestamp;temperature;humidity
8709;DHT22;4391;48.678;9.280;2023-04-15T00:00:35;2.90;72.40
8709;DHT22;4391;48.678;9.280;2023-04-15T00:03:02;2.80;75.40
8709;DHT22;4391;48.678;9.280;2023-04-15T00:05:31;2.80;83.30
8709;DHT22;4391;48.678;9.280;2023-04-15T00:07:58;2.70;91.00
8709;DHT22;4391;48.678;9.280;2023-04-15T00:10:26;2.60;86.80
8709;DHT22;4391;48.678;9.280;2023-04-15T00:12:52;2.60;90.70
8709;DHT22;4391;48.678;9.280;2023-04-15T00:15:19;2.60;95.20
8709;DHT22;4391;48.678;9.280;2023-04-15T00:17:48;2.70;94.70
8709;DHT22;4391;48.678;9.280;2023-04-15T00:20:15;2.60;91.70
8709;DHT22;4391;48.678;9.280;2023-04-15T00:22:43;2.60;91.80
8709;DHT22;4391;48.678;9.280;2023-04-15T00:25:10;2.50;92.30
8709;DHT22;4391;48.678;9.280;2023-04-15T00:27:37;2.40;95.60
8709;DHT22;4391;48.678;9.280;2023-04-15T00:30:06;2.40;96.40
8709;DHT22;4391;48.678;9.280;2023-04-15T00:32:33;2.30;98.30
8709;DHT22;4391;48.678;9.280;2023-04-15T00:35:00;2.20;99.90
8709;DHT22;4391;48.678;9.280;2023-04-15T00:37:26;2.20;99.90
8709;DHT22;4391;48.678;9.280;2023-04-15T00:39:55;2.20;99.90
8709;DHT22;4391;48.678;9.280;2023-04-15T00:42:22;2.20;99.90
8709;DHT22;4391;48.678;9.280;2023-04-15T00:44:48;2.10;99.90
8709;DHT22;4391;48.678;9.280;2023-04-15T00:47:16;2.10;99.90
8709;DHT22;4391;48.678;9.280;2023-04-15T00:49:43;2.10;99.90
8709;DHT22;4391;48.678;9.280;2023-04-15T00:52:10;2.00;99.90
8709;DHT22;4391;48.678;9.280;2023-04-15T00:54:40;2.00;99.90
8709;DHT22;4391;48.678;9.280;2023-04-15T00:57:08;2.00;99.90
8709;DHT22;4391;48.678;9.280;2023-04-15T00:59:35;1.90;99.90
8709;DHT22;4391;48.678;9.280;2023-04-15T01:02:01;1.90;99.90
8709;DHT22;4391;48.678;9.280;2023-04-15T01:04:29;1.90;99.90
8709;DHT22;4391;48.678;9.280;2023-04-15T01:06:56;1.80;99.90
8709;DHT22;4391;48.678;9.280;2023-04-15T01:09:23;1.80;99.90
8709;DHT22;4391;48.678;9.280;2023-04-15T01:11:50;1.70;99.90
8709;DHT22;4391;48.678;9.280;2023-04-15T01:14:18;1.70;99.90
8709;DHT22;4391;48.678;9.280;2023-04-15T01:16:45;1.70;99.90
8709;DHT22;4391;48.678;9.280;2023-04-15T01:19:13;1.60;99.90
8709;DHT22;4391;48.678;9.280;2023-04-15T01:21:42;1.60;99.90
8709;DHT22;4391;48.678;9.280;2023-04-15T01:24:10;1.60;99.90
8709;DHT22;4391;48.678;9.280;2023-04-15T01:26:39;1.60;99.90
8709;DHT22;4391;48.678;9.280;2023-04-15T01:29:06;1.60;99.90
8709;DHT22;4391;48.678;9.280;2023-04-15T01:31:33;1.60;99.90
8709;DHT22;4391;48.678;9.280;2023-04-15T01:34:00;1.60;99.90
8709;DHT22;4391;48.678;9.280;2023-04-15T01:36:27;1.60;99.90
8709;DHT22;4391;48.678;9.280;2023-04-15T01:38:55;1.60;99.90
8709;DHT22;4391;48.678;9.280;2023-04-15T01:41:24;1.50;99.90
8709;DHT22;4391;48.678;9.280;2023-04-15T01:43:52;1.50;99.90
8709;DHT22;4391;48.678;9.280;2023-04-15T01:46:19;1.50;99.90
8709;DHT22;4391;48.678;9.280;2023-04-15T01:48:46;1.50;99.90
8709;DHT22;4391;48.678;9.280;2023-04-15T01:51:13;1.40;99.90
8709;DHT22;4391;48.678;9.280;2023-04-15T01:53:40;1.40;99.90
8709;DHT22;4391;48.678;9.280;2023-04-15T01:56:07;1.30;99.90
8709;DHT22;4391;48.678;9.280;2023-04-15T01:58:33;1.30;99.90
8709;DHT22;4391;48.678;9.280;2023-04-15T02:01:02;1.30;99.90
8709;DHT22;4391;48.678;9.280;2023-04-15T02:03:29;1.20;99.90
8709;DHT22;4391;48.678;9.280;2023-04-15T02:05:56;1.20;99.90
8709;DHT22;4391;48.678;9.280;2023-04-15T02:08:23;1.10;99.90
8709;DHT22;4391;48.678;9.280;2023-04-15T02:10:50;1.10;99.90
8709;DHT22;4391;48.678;9.280;2023-04-15T02:13:17;1.10;99.90
8709;DHT22;4391;48.678;9.280;2023-04-15T02:15:46;1.00;99.90
8709;DHT22;4391;48.678;9.280;2023-04-15T02:18:15;1.00;99.90
8709;DHT22;4391;48.678;9.280;2023-04-15T02:20:42;0.90;99.90
8709;DHT22;4391;48.678;9.280;2023-04-15T02:23:09;0.90;99.90
8709;DHT22;4391;48.678;9.280;2023-04-15T02:25:36;0.90;99.90
8709;DHT22;4391;48.678;9.280;2023-04-15T02:28:04;0.90;99.90
8709;DHT22;4391;48.678;9.280;2023-04-15T02:30:31;0.90;99.90
8709;DHT22;4391;48.678;9.280;2023-04-15T02:32:59;0.90;99.90
8709;DHT22;4391;48.678;9.280;2023-04-15T02:35:27;0.80;99.90
8709;DHT22;4391;48.678;9.280;2023-04-15T02:37:54;0.80;99.90
8709;DHT22;4391;48.678;9.280;2023-04-15T02:40:21;0.80;99.90
8709;DHT22;4391;48.678;9.280;2023-04-15T02:42:48;0.80;99.90
8709;DHT22;4391;48.678;9.280;2023-04-15T02:45:15;0.80;99.90
8709;DHT22;4391;48.678;9.280;2023-04-15T02:47:44;0.80;99.90
8709;DHT22;4391;48.678;9.280;2023-04-15T02:50:12;0.70;99.90
8709;DHT22;4391;48.678;9.280;2023-04-15T02:52:42;0.70;99.90
8709;DHT22;4391;48.678;9.280;2023-04-15T02:55:09;0.70;99.90
8709;DHT22;4391;48.678;9.280;2023-04-15T02:57:36;0.80;99.90
8709;DHT22;4391;48.678;9.280;2023-04-15T03:00:04;0.90;99.90
8709;DHT22;4391;48.678;9.280;2023-04-15T03:02:34;0.90;99.90
8709;DHT22;4391;48.678;9.280;2023-04-15T03:05:01;0.80;99.90
8709;DHT22;4391;48.678;9.280;2023-04-15T03:07:28;0.80;99.90
8709;DHT22;4391;48.678;9.280;2023-04-15T03:09:56;0.70;99.90
8709;DHT22;4391;48.678;9.280;2023-04-15T03:12:23;0.70;99.90
8709;DHT22;4391;48.678;9.280;2023-04-15T03:14:50;0.70;99.90
8709;DHT22;4391;48.678;9.280;2023-04-15T03:17:17;0.60;99.90
8709;DHT22;4391;48.678;9.280;2023-04-15T03:19:44;0.60;99.90
8709;DHT22;4391;48.678;9.280;2023-04-15T03:22:11;0.60;99.90
8709;DHT22;4391;48.678;9.280;2023-04-15T03:24:37;0.60;99.90
8709;DHT22;4391;48.678;9.280;2023-04-15T03:27:05;0.50;99.90
8709;DHT22;4391;48.678;9.280;2023-04-15T03:29:33;0.50;99.90
8709;DHT22;4391;48.678;9.280;2023-04-15T03:32:00;0.50;99.90
8709;DHT22;4391;48.678;9.280;2023-04-15T03:34:27;0.40;99.90
8709;DHT22;4391;48.678;9.280;2023-04-15T03:36:54;0.40;99.90
8709;DHT22;4391;48.678;9.280;2023-04-15T03:39:21;0.40;99.90
8709;DHT22;4391;48.678;9.280;2023-04-15T03:41:48;0.40;99.90
8709;DHT22;4391;48.678;9.280;2023-04-15T03:44:16;0.40;99.90
8709;DHT22;4391;48.678;9.280;2023-04-15T03:46:43;0.50;99.90
8709;DHT22;4391;48.678;9.280;2023-04-15T03:49:10;0.60;99.90
8709;DHT22;4391;48.678;9.280;2023-04-15T03:51:36;0.60;99.90
8709;DHT22;4391;48.678;9.280;2023-04-15T03:54:03;0.60;99.90
8709;DHT22;4391;48.678;9.280;2023-04-15T03:56:32;0.70;99.90
8709;DHT22;4391;48.678;9.280;2023-04-15T03:58:59;0.60;99.90
8709;DHT22;4391;48.678;9.280;2023-04-15T04:01:27;0.60;99.90
8709;DHT22;4391;48.678;9.280;2023-04-15T04:03:54;0.50;99.90
8709;DHT22;4391;48.678;9.280;2023-04-15T04:06:21;0.50;99.90
8709;DHT22;4391;48.678;9.280;2023-04-15T04:08:48;0.40;99.90
8709;DHT22;4391;48.678;9.280;2023-04-15T04:11:15;0.40;99.90
8709;DHT22;4391;48.678;9.280;2023-04-15T04:13:42;0.40;99.90
8709;DHT22;4391;48.678;9.280;2023-04-15T04:16:08;0.30;99.90
8709;DHT22;4391;48.678;9.280;2023-04-15T04:18:36;0.30;99.90
8709;DHT22;4391;48.678;9.280;2023-04-15T04:21:03;0.30;99.90
8709;DHT22;4391;48.678;9.280;2023-04-15T04:23:30;0.30;99.90
8709;DHT22;4391;48.678;9.280;2023-04-15T04:25:57;0.30;99.90
8709;DHT22;4391;48.678;9.280;2023-04-15T04:28:24;0.30;99.90
8709;DHT22;4391;48.678;9.280;2023-04-15T04:30:50;0.30;99.90
8709;DHT22;4391;48.678;9.280;2023-04-15T04:33:17;0.30;99.90
8709;DHT22;4391;48.678;9.280;2023-04-15T04:35:46;0.20;99.90
8709;DHT22;4391;48.678;9.280;2023-04-15T04:38:12;0.20;99.90
8709;DHT22;4391;48.678;9.280;2023-04-15T04:40:39;0.20;99.90
8709;DHT22;4391;48.678;9.280;2023-04-15T04:43:06;0.20;99.90
8709;DHT22;4391;48.678;9.280;2023-04-15T04:45:33;0.30;99.90
8709;DHT22;4391;48.678;9.280;2023-04-15T04:48:00;0.30;99.90
8709;DHT22;4391;48.678;9.280;2023-04-15T04:50:31;0.20;99.90
8709;DHT22;4391;48.678;9.280;2023-04-15T04:52:59;0.30;99.90
8709;DHT22;4391;48.678;9.280;2023-04-15T04:55:26;0.30;99.90
8709;DHT22;4391;48.678;9.280;2023-04-15T04:57:53;0.30;99.90
8709;DHT22;4391;48.678;9.280;2023-04-15T05:00:20;0.20;99.90
8709;DHT22;4391;48.678;9.280;2023-04-15T05:02:47;0.30;99.90
8709;DHT22;4391;48.678;9.280;2023-04-15T05:05:14;0.30;99.90
8709;DHT22;4391;48.678;9.280;2023-04-15T05:07:41;0.40;99.90
8709;DHT22;4391;48.678;9.280;2023-04-15T05:10:09;0.40;99.90
8709;DHT22;4391;48.678;9.280;2023-04-15T05:12:36;0.50;99.90
8709;DHT22;4391;48.678;9.280;2023-04-15T05:15:04;0.50;99.90
8709;DHT22;4391;48.678;9.280;2023-04-15T05:17:31;0.50;99.90
8709;DHT22;4391;48.678;9.280;2023-04-15T05:19:59;0.60;99.90
8709;DHT22;4391;48.678;9.280;2023-04-15T05:22:26;0.70;99.90
8709;DHT22;4391;48.678;9.280;2023-04-15T05:24:53;0.70;99.90
8709;DHT22;4391;48.678;9.280;2023-04-15T05:27:21;0.70;99.90
8709;DHT22;4391;48.678;9.280;2023-04-15T05:29:49;0.70;99.90
8709;DHT22;4391;48.678;9.280;2023-04-15T05:32:16;0.80;99.90
8709;DHT22;4391;48.678;9.280;2023-04-15T05:34:42;0.90;99.90
8709;DHT22;4391;48.678;9.280;2023-04-15T05:37:09;0.90;99.90
8709;DHT22;4391;48.678;9.280;2023-04-15T05:39:36;1.10;99.90
8709;DHT22;4391;48.678;9.280;2023-04-15T05:42:03;1.20;99.90
8709;DHT22;4391;48.678;9.280;2023-04-15T05:44:32;1.30;99.90
8709;DHT22;4391;48.678;9.280;2023-04-15T05:46:59;1.50;99.90
8709;DHT22;4391;48.678;9.280;2023-04-15T05:49:26;1.60;99.90
8709;DHT22;4391;48.678;9.280;2023-04-15T05:51:53;1.80;99.90
8709;DHT22;4391;48.678;9.280;2023-04-15T05:54:20;2.00;99.90
8709;DHT22;4391;48.678;9.280;2023-04-15T05:56:47;2.20;99.90
8709;DHT22;4391;48.678;9.280;2023-04-15T05:59:14;2.50;99.90
8709;DHT22;4391;48.678;9.280;2023-04-15T06:01:42;2.80;99.90
8709;DHT22;4391;48.678;9.280;2023-04-15T06:04:09;3.20;59.50
8709;DHT22;4391;48.678;9.280;2023-04-15T06:06:36;3.70;14.70
8709;DHT22;4391;48.678;9.280;2023-04-15T06:09:03;4.10;1.00
8709;DHT22;4391;48.678;9.280;2023-04-15T06:11:30;4.50;1.00
8709;DHT22;4391;48.678;9.280;2023-04-15T06:13:57;4.90;99.90
8709;DHT22;4391;48.678;9.280;2023-04-15T06:16:24;5.40;51.80
8709;DHT22;4391;48.678;9.280;2023-04-15T06:18:53;5.80;1.00
8709;DHT22;4391;48.678;9.280;2023-04-15T06:21:19;6.20;99.90
8709;DHT22;4391;48.678;9.280;2023-04-15T06:23:46;6.70;99.90
8709;DHT22;4391;48.678;9.280;2023-04-15T06:26:13;7.10;1.00
8709;DHT22;4391;48.678;9.280;2023-04-15T06:28:40;7.60;99.90
8709;DHT22;4391;48.678;9.280;2023-04-15T06:31:07;7.90;99.90
8709;DHT22;4391;48.678;9.280;2023-04-15T06:33:33;8.10;1.00
8709;DHT22;4391;48.678;9.280;2023-04-15T06:36:02;8.20;1.00
8709;DHT22;4391;48.678;9.280;2023-04-15T06:38:29;8.30;1.00
8709;DHT22;4391;48.678;9.280;2023-04-15T06:40:55;8.40;1.00
8709;DHT22;4391;48.678;9.280;2023-04-15T06:43:22;8.50;1.00
8709;DHT22;4391;48.678;9.280;2023-04-15T06:45:50;8.40;1.00
8709;DHT22;4391;48.678;9.280;2023-04-15T06:48:17;8.30;1.00
8709;DHT22;4391;48.678;9.280;2023-04-15T06:50:44;8.30;9.00
8709;DHT22;4391;48.678;9.280;2023-04-15T06:53:12;8.20;99.90
8709;DHT22;4391;48.678;9.280;2023-04-15T06:55:39;8.10;99.90
8709;DHT22;4391;48.678;9.280;2023-04-15T06:58:06;8.00;99.90
8709;DHT22;4391;48.678;9.280;2023-04-15T07:00:32;7.80;99.90
8709;DHT22;4391;48.678;9.280;2023-04-15T07:03:00;7.70;99.90
8709;DHT22;4391;48.678;9.280;2023-04-15T07:05:28;7.50;1.00
8709;DHT22;4391;48.678;9.280;2023-04-15T07:07:55;7.50;99.90
8709;DHT22;4391;48.678;9.280;2023-04-15T07:10:25;7.60;99.90
8709;DHT22;4391;48.678;9.280;2023-04-15T07:12:52;7.60;99.90
8709;DHT22;4391;48.678;9.280;2023-04-15T07:15:18;7.60;99.90
8709;DHT22;4391;48.678;9.280;2023-04-15T07:17:45;7.60;99.90
8709;DHT22;4391;48.678;9.280;2023-04-15T07:20:12;7.80;99.90
8709;DHT22;4391;48.678;9.280;2023-04-15T07:22:39;8.00;45.40
8709;DHT22;4391;48.678;9.280;2023-04-15T07:25:07;8.30;1.00
8709;DHT22;4391;48.678;9.280;2023-04-15T07:27:36;8.30;1.00
8709;DHT22;4391;48.678;9.280;2023-04-15T07:30:03;8.50;1.00
8709;DHT22;4391;48.678;9.280;2023-04-15T07:32:33;8.80;1.00
8709;DHT22;4391;48.678;9.280;2023-04-15T07:35:00;9.10;1.00
8709;DHT22;4391;48.678;9.280;2023-04-15T07:37:28;9.20;1.00
8709;DHT22;4391;48.678;9.280;2023-04-15T07:39:55;9.10;99.90
8709;DHT22;4391;48.678;9.280;2023-04-15T07:42:22;9.10;1.00
8709;DHT22;4391;48.678;9.280;2023-04-15T07:44:50;9.00;1.00
8709;DHT22;4391;48.678;9.280;2023-04-15T07:47:17;9.00;1.00
8709;DHT22;4391;48.678;9.280;2023-04-15T07:49:45;8.90;1.00
8709;DHT22;4391;48.678;9.280;2023-04-15T07:52:12;8.80;1.00
8709;DHT22;4391;48.678;9.280;2023-04-15T07:54:39;8.70;1.00
8709;DHT22;4391;48.678;9.280;2023-04-15T07:57:06;8.80;1.00
8709;DHT22;4391;48.678;9.280;2023-04-15T07:59:33;8.90;48.30
8709;DHT22;4391;48.678;9.280;2023-04-15T08:02:02;9.40;39.20
8709;DHT22;4391;48.678;9.280;2023-04-15T08:04:29;9.30;1.00
8709;DHT22;4391;48.678;9.280;2023-04-15T08:06:56;9.60;1.00
8709;DHT22;4391;48.678;9.280;2023-04-15T08:09:23;9.70;99.90
8709;DHT22;4391;48.678;9.280;2023-04-15T08:11:51;9.90;99.90
8709;DHT22;4391;48.678;9.280;2023-04-15T08:14:19;10.30;99.90
8709;DHT22;4391;48.678;9.280;2023-04-15T08:16:46;10.60;99.90
8709;DHT22;4391;48.678;9.280;2023-04-15T08:19:15;10.90;99.90
8709;DHT22;4391;48.678;9.280;2023-04-15T08:21:42;11.00;99.90
8709;DHT22;4391;48.678;9.280;2023-04-15T08:24:09;11.30;99.90
8709;DHT22;4391;48.678;9.280;2023-04-15T08:26:37;11.70;99.90
8709;DHT22;4391;48.678;9.280;2023-04-15T08:29:04;11.90;99.90
8709;DHT22;4391;48.678;9.280;2023-04-15T08:31:31;12.40;99.90
8709;DHT22;4391;48.678;9.280;2023-04-15T08:33:58;12.60;99.90
8709;DHT22;4391;48.678;9.280;2023-04-15T08:36:26;12.70;99.90
8709;DHT22;4391;48.678;9.280;2023-04-15T08:38:53;13.20;99.90
8709;DHT22;4391;48.678;9.280;2023-04-15T08:41:22;13.50;99.90
8709;DHT22;4391;48.678;9.280;2023-04-15T08:43:56;14.10;99.90
8709;DHT22;4391;48.678;9.280;2023-04-15T08:46:23;14.90;99.90
8709;DHT22;4391;48.678;9.280;2023-04-15T08:48:51;15.60;99.90
8709;DHT22;4391;48.678;9.280;2023-04-15T08:51:27;15.90;99.90
8709;DHT22;4391;48.678;9.280;2023-04-15T08:53:54;15.70;99.90
8709;DHT22;4391;48.678;9.280;2023-04-15T08:56:24;15.70;99.90
8709;DHT22;4391;48.678;9.280;2023-04-15T08:58:53;16.10;99.90
8709;DHT22;4391;48.678;9.280;2023-04-15T09:01:22;16.50;99.90
8709;DHT22;4391;48.678;9.280;2023-04-15T09:03:49;17.10;99.90
8709;DHT22;4391;48.678;9.280;2023-04-15T09:06:17;17.80;99.90
8709;DHT22;4391;48.678;9.280;2023-04-15T09:08:46;18.30;99.90
8709;DHT22;4391;48.678;9.280;2023-04-15T09:11:13;18.70;99.90
8709;DHT22;4391;48.678;9.280;2023-04-15T09:13:40;19.30;99.90
8709;DHT22;4391;48.678;9.280;2023-04-15T09:16:07;19.90;99.90
8709;DHT22;4391;48.678;9.280;2023-04-15T09:18:38;20.10;99.90
8709;DHT22;4391;48.678;9.280;2023-04-15T09:21:06;20.50;99.90
8709;DHT22;4391;48.678;9.280;2023-04-15T09:23:36;21.20;99.90
8709;DHT22;4391;48.678;9.280;2023-04-15T09:26:05;21.50;99.90
8709;DHT22;4391;48.678;9.280;2023-04-15T09:28:32;21.80;99.90
8709;DHT22;4391;48.678;9.280;2023-04-15T09:31:01;22.10;99.90
8709;DHT22;4391;48.678;9.280;2023-04-15T09:33:28;22.40;99.90
8709;DHT22;4391;48.678;9.280;2023-04-15T09:36:02;22.10;99.90
8709;DHT22;4391;48.678;9.280;2023-04-15T09:38:54;22.10;99.90
8709;DHT22;4391;48.678;9.280;2023-04-15T09:41:26;22.30;99.90
8709;DHT22;4391;48.678;9.280;2023-04-15T09:43:53;22.40;99.90
8709;DHT22;4391;48.678;9.280;2023-04-15T09:46:20;22.30;99.90
8709;DHT22;4391;48.678;9.280;2023-04-15T09:49:08;22.10;99.90
8709;DHT22;4391;48.678;9.280;2023-04-15T09:51:36;21.80;99.90
8709;DHT22;4391;48.678;9.280;2023-04-15T09:54:03;21.40;99.90
8709;DHT22;4391;48.678;9.280;2023-04-15T09:56:34;21.00;99.90
8709;DHT22;4391;48.678;9.280;2023-04-15T09:59:02;20.40;99.90
8709;DHT22;4391;48.678;9.280;2023-04-15T10:01:30;20.10;99.90
8709;DHT22;4391;48.678;9.280;2023-04-15T10:03:57;19.50;99.90
8709;DHT22;4391;48.678;9.280;2023-04-15T10:06:25;18.90;99.90
8709;DHT22;4391;48.678;9.280;2023-04-15T10:08:53;18.50;99.90
8709;DHT22;4391;48.678;9.280;2023-04-15T10:11:21;18.20;99.90
8709;DHT22;4391;48.678;9.280;2023-04-15T10:13:50;18.30;99.90
8709;DHT22;4391;48.678;9.280;2023-04-15T10:16:19;18.00;99.90
8709;DHT22;4391;48.678;9.280;2023-04-15T10:18:52;18.00;99.90
8709;DHT22;4391;48.678;9.280;2023-04-15T10:21:20;18.00;99.90
8709;DHT22;4391;48.678;9.280;2023-04-15T10:23:48;17.90;99.90
8709;DHT22;4391;48.678;9.280;2023-04-15T10:26:16;18.00;99.90
8709;DHT22;4391;48.678;9.280;2023-04-15T10:28:43;17.90;99.90
8709;DHT22;4391;48.678;9.280;2023-04-15T10:31:13;17.90;99.90
8709;DHT22;4391;48.678;9.280;2023-04-15T10:33:41;17.80;99.90
8709;DHT22;4391;48.678;9.280;2023-04-15T10:36:08;18.00;99.90
8709;DHT22;4391;48.678;9.280;2023-04-15T10:38:38;18.40;99.90
8709;DHT22;4391;48.678;9.280;2023-04-15T10:41:17;19.40;99.90
8709;DHT22;4391;48.678;9.280;2023-04-15T10:43:47;19.70;99.90
8709;DHT22;4391;48.678;9.280;2023-04-15T10:46:18;20.40;99.90
8709;DHT22;4391;48.678;9.280;2023-04-15T10:48:47;20.60;99.90
8709;DHT22;4391;48.678;9.280;2023-04-15T10:51:14;20.30;99.90
8709;DHT22;4391;48.678;9.280;2023-04-15T10:53:41;20.00;99.90
8709;DHT22;4391;48.678;9.280;2023-04-15T10:56:09;20.50;99.90
8709;DHT22;4391;48.678;9.280;2023-04-15T10:58:41;21.00;99.90
8709;DHT22;4391;48.678;9.280;2023-04-15T11:01:08;22.00;99.90
8709;DHT22;4391;48.678;9.280;2023-04-15T11:03:38;22.50;99.90
8709;DHT22;4391;48.678;9.280;2023-04-15T11:06:05;21.70;99.90
8709;DHT22;4391;48.678;9.280;2023-04-15T11:08:57;21.90;99.90
8709;DHT22;4391;48.678;9.280;2023-04-15T11:12:04;21.80;99.90
8709;DHT22;4391;48.678;9.280;2023-04-15T11:14:32;21.80;99.90
8709;DHT22;4391;48.678;9.280;2023-04-15T11:17:00;22.10;99.90
8709;DHT22;4391;48.678;9.280;2023-04-15T11:19:36;22.10;99.90
8709;DHT22;4391;48.678;9.280;2023-04-15T11:22:07;21.60;99.90
8709;DHT22;4391;48.678;9.280;2023-04-15T11:24:51;21.30;99.90
8709;DHT22;4391;48.678;9.280;2023-04-15T11:27:21;21.20;99.90
8709;DHT22;4391;48.678;9.280;2023-04-15T11:29:50;20.90;99.90
8709;DHT22;4391;48.678;9.280;2023-04-15T11:35:28;20.70;99.90
8709;DHT22;4391;48.678;9.280;2023-04-15T11:39:49;20.20;99.90
8709;DHT22;4391;48.678;9.280;2023-04-15T11:42:35;19.10;99.90
8709;DHT22;4391;48.678;9.280;2023-04-15T12:53:55;13.70;99.90
8709;DHT22;4391;48.678;9.280;2023-04-15T12:56:42;12.30;99.90
8709;DHT22;4391;48.678;9.280;2023-04-15T12:59:39;11.70;99.90
8709;DHT22;4391;48.678;9.280;2023-04-15T13:02:28;11.50;1.00
8709;DHT22;4391;48.678;9.280;2023-04-15T13:05:00;11.60;99.90
8709;DHT22;4391;48.678;9.280;2023-04-15T13:09:08;11.80;30.10
8709;DHT22;4391;48.678;9.280;2023-04-15T13:11:08;12.30;1.00
8709;DHT22;4391;48.678;9.280;2023-04-15T13:14:24;12.80;1.00
8709;DHT22;4391;48.678;9.280;2023-04-15T13:17:08;12.90;1.00
8709;DHT22;4391;48.678;9.280;2023-04-15T13:19:48;12.70;99.90
8709;DHT22;4391;48.678;9.280;2023-04-15T13:22:24;12.80;99.90
8709;DHT22;4391;48.678;9.280;2023-04-15T13:25:10;12.70;99.90
8709;DHT22;4391;48.678;9.280;2023-04-15T13:35:10;13.70;99.90
8709;DHT22;4391;48.678;9.280;2023-04-15T13:41:05;13.60;99.90
8709;DHT22;4391;48.678;9.280;2023-04-15T13:43:48;13.40;99.90
8709;DHT22;4391;48.678;9.280;2023-04-15T13:46:23;13.50;99.90
8709;DHT22;4391;48.678;9.280;2023-04-15T13:49:01;13.70;99.90
8709;DHT22;4391;48.678;9.280;2023-04-15T13:54:54;14.00;99.90
8709;DHT22;4391;48.678;9.280;2023-04-15T13:57:30;14.30;99.90
8709;DHT22;4391;48.678;9.280;2023-04-15T14:00:13;14.30;99.90
8709;DHT22;4391;48.678;9.280;2023-04-15T14:03:05;14.40;99.90
8709;DHT22;4391;48.678;9.280;2023-04-15T14:05:39;14.40;99.90
8709;DHT22;4391;48.678;9.280;2023-04-15T14:08:26;13.90;99.90
8709;DHT22;4391;48.678;9.280;2023-04-15T14:14:29;13.50;99.90
8709;DHT22;4391;48.678;9.280;2023-04-15T14:17:15;13.40;99.90
8709;DHT22;4391;48.678;9.280;2023-04-15T14:20:01;13.40;99.90
8709;DHT22;4391;48.678;9.280;2023-04-15T14:23:33;13.40;99.90
8709;DHT22;4391;48.678;9.280;2023-04-15T14:25:49;13.30;99.90
8709;DHT22;4391;48.678;9.280;2023-04-15T14:28:19;13.00;99.90
8709;DHT22;4391;48.678;9.280;2023-04-15T14:30:49;12.80;99.90
8709;DHT22;4391;48.678;9.280;2023-04-15T14:33:19;12.70;99.90
8709;DHT22;4391;48.678;9.280;2023-04-15T14:35:48;12.70;99.90
8709;DHT22;4391;48.678;9.280;2023-04-15T14:38:15;12.60;99.90
8709;DHT22;4391;48.678;9.280;2023-04-15T14:40:44;12.50;99.90
8709;DHT22;4391;48.678;9.280;2023-04-15T14:43:12;12.40;99.90
8709;DHT22;4391;48.678;9.280;2023-04-15T14:45:39;12.50;99.90
8709;DHT22;4391;48.678;9.280;2023-04-15T14:48:08;12.50;99.90
8709;DHT22;4391;48.678;9.280;2023-04-15T14:50:36;12.30;99.90
8709;DHT22;4391;48.678;9.280;2023-04-15T14:53:03;12.30;99.90
8709;DHT22;4391;48.678;9.280;2023-04-15T14:55:30;12.20;99.90
8709;DHT22;4391;48.678;9.280;2023-04-15T14:57:57;12.20;99.90
8709;DHT22;4391;48.678;9.280;2023-04-15T15:00:26;12.20;99.90
8709;DHT22;4391;48.678;9.280;2023-04-15T15:02:52;12.10;99.90
8709;DHT22;4391;48.678;9.280;2023-04-15T15:05:19;12.00;99.90
8709;DHT22;4391;48.678;9.280;2023-04-15T15:07:46;11.70;99.90
8709;DHT22;4391;48.678;9.280;2023-04-15T15:10:13;11.70;99.90
8709;DHT22;4391;48.678;9.280;2023-04-15T15:12:40;11.60;99.90
8709;DHT22;4391;48.678;9.280;2023-04-15T15:15:07;11.50;99.90
8709;DHT22;4391;48.678;9.280;2023-04-15T15:17:35;11.50;99.90
8709;DHT22;4391;48.678;9.280;2023-04-15T15:20:03;11.40;99.90
8709;DHT22;4391;48.678;9.280;2023-04-15T15:22:30;11.40;99.90
8709;DHT22;4391;48.678;9.280;2023-04-15T15:24:56;11.30;99.90
8709;DHT22;4391;48.678;9.280;2023-04-15T15:27:25;11.10;99.90
8709;DHT22;4391;48.678;9.280;2023-04-15T15:29:52;11.00;99.90
8709;DHT22;4391;48.678;9.280;2023-04-15T15:32:19;10.90;99.90
8709;DHT22;4391;48.678;9.280;2023-04-15T15:34:47;10.80;99.90
8709;DHT22;4391;48.678;9.280;2023-04-15T15:37:14;10.70;99.90
8709;DHT22;4391;48.678;9.280;2023-04-15T15:39:40;10.50;99.90
8709;DHT22;4391;48.678;9.280;2023-04-15T15:42:07;10.40;99.90
8709;DHT22;4391;48.678;9.280;2023-04-15T15:44:34;10.30;99.90
8709;DHT22;4391;48.678;9.280;2023-04-15T15:47:03;10.30;99.90
8709;DHT22;4391;48.678;9.280;2023-04-15T15:49:30;10.30;99.90
8709;DHT22;4391;48.678;9.280;2023-04-15T15:51:59;10.20;99.90
8709;DHT22;4391;48.678;9.280;2023-04-15T15:54:26;10.20;99.90
8709;DHT22;4391;48.678;9.280;2023-04-15T15:56:53;10.20;99.90
8709;DHT22;4391;48.678;9.280;2023-04-15T15:59:22;10.20;99.90
8709;DHT22;4391;48.678;9.280;2023-04-15T16:01:50;10.20;99.90
8709;DHT22;4391;48.678;9.280;2023-04-15T16:04:16;10.20;99.90
8709;DHT22;4391;48.678;9.280;2023-04-15T16:06:43;10.20;99.90
8709;DHT22;4391;48.678;9.280;2023-04-15T16:09:12;10.20;99.90
8709;DHT22;4391;48.678;9.280;2023-04-15T16:11:39;10.10;99.90
8709;DHT22;4391;48.678;9.280;2023-04-15T16:14:06;10.00;1.00
8709;DHT22;4391;48.678;9.280;2023-04-15T16:16:33;10.00;1.00
8709;DHT22;4391;48.678;9.280;2023-04-15T16:19:00;10.00;99.90
8709;DHT22;4391;48.678;9.280;2023-04-15T16:21:27;10.00;99.90
8709;DHT22;4391;48.678;9.280;2023-04-15T16:23:55;10.00;99.90
8709;DHT22;4391;48.678;9.280;2023-04-15T16:26:23;10.00;1.00
8709;DHT22;4391;48.678;9.280;2023-04-15T16:28:50;10.00;99.90
8709;DHT22;4391;48.678;9.280;2023-04-15T16:31:17;9.90;1.00
8709;DHT22;4391;48.678;9.280;2023-04-15T16:33:44;9.80;14.10
8709;DHT22;4391;48.678;9.280;2023-04-15T16:36:11;9.70;1.00
8709;DHT22;4391;48.678;9.280;2023-04-15T16:38:38;9.50;99.90
8709;DHT22;4391;48.678;9.280;2023-04-15T16:41:05;9.40;1.00
8709;DHT22;4391;48.678;9.280;2023-04-15T16:43:33;9.20;54.50
8709;DHT22;4391;48.678;9.280;2023-04-15T16:46:03;9.10;99.90
8709;DHT22;4391;48.678;9.280;2023-04-15T16:48:30;9.00;1.00
8709;DHT22;4391;48.678;9.280;2023-04-15T16:50:57;9.00;1.00
8709;DHT22;4391;48.678;9.280;2023-04-15T16:53:24;8.90;1.00
8709;DHT22;4391;48.678;9.280;2023-04-15T16:55:51;8.90;1.00
8709;DHT22;4391;48.678;9.280;2023-04-15T16:58:20;9.00;1.00
8709;DHT22;4391;48.678;9.280;2023-04-15T17:00:49;8.80;1.00
8709;DHT22;4391;48.678;9.280;2023-04-15T17:03:16;8.90;1.00
8709;DHT22;4391;48.678;9.280;2023-04-15T17:05:43;8.80;1.00
8709;DHT22;4391;48.678;9.280;2023-04-15T17:08:12;8.80;1.00
8709;DHT22;4391;48.678;9.280;2023-04-15T17:10:39;8.90;1.00
8709;DHT22;4391;48.678;9.280;2023-04-15T17:13:06;8.80;1.00
8709;DHT22;4391;48.678;9.280;2023-04-15T17:15:33;8.70;1.00
8709;DHT22;4391;48.678;9.280;2023-04-15T17:18:02;8.70;2.80
8709;DHT22;4391;48.678;9.280;2023-04-15T17:20:30;8.50;40.20
8709;DHT22;4391;48.678;9.280;2023-04-15T17:22:57;8.40;51.50
8709;DHT22;4391;48.678;9.280;2023-04-15T17:25:24;8.30;90.00
8709;DHT22;4391;48.678;9.280;2023-04-15T17:27:51;8.30;94.60
8709;DHT22;4391;48.678;9.280;2023-04-15T17:30:20;8.20;97.50
8709;DHT22;4391;48.678;9.280;2023-04-15T17:32:48;8.20;99.90
8709;DHT22;4391;48.678;9.280;2023-04-15T17:35:16;8.20;99.90
8709;DHT22;4391;48.678;9.280;2023-04-15T17:37:44;8.10;99.90
8709;DHT22;4391;48.678;9.280;2023-04-15T17:40:11;8.10;99.90
8709;DHT22;4391;48.678;9.280;2023-04-15T17:42:39;8.00;99.90
8709;DHT22;4391;48.678;9.280;2023-04-15T17:45:07;7.90;99.90
8709;DHT22;4391;48.678;9.280;2023-04-15T17:47:34;7.90;98.70
8709;DHT22;4391;48.678;9.280;2023-04-15T17:50:01;7.80;99.90
8709;DHT22;4391;48.678;9.280;2023-04-15T17:52:29;7.80;99.90
8709;DHT22;4391;48.678;9.280;2023-04-15T17:54:56;7.80;99.90
8709;DHT22;4391;48.678;9.280;2023-04-15T17:57:23;7.80;99.90